sensor_id;sensor_type;location;lat;lon;timestamp;temperature;humidity
38265;DHT22;24062;47.480;8.768;2022-10-17T00:01:01;13.40;72.20
38265;DHT22;24062;47.480;8.768;2022-10-17T00:03:28;13.40;72.20
38265;DHT22;24062;47.480;8.768;2022-10-17T00:05:55;13.30;72.20
38265;DHT22;24062;47.480;8.768;2022-10-17T00:08:22;13.30;72.40
38265;DHT22;24062;47.480;8.768;2022-10-17T00:10:59;13.30;72.30
38265;DHT22;24062;47.480;8.768;2022-10-17T00:13:26;13.20;72.20
38265;DHT22;24062;47.480;8.768;2022-10-17T00:15:54;13.20;72.10
38265;DHT22;24062;47.480;8.768;2022-10-17T00:18:20;13.20;72.30
38265;DHT22;24062;47.480;8.768;2022-10-17T00:20:47;13.20;72.50
38265;DHT22;24062;47.480;8.768;2022-10-17T00:23:14;13.20;72.40
38265;DHT22;24062;47.480;8.768;2022-10-17T00:25:41;13.10;72.20
38265;DHT22;24062;47.480;8.768;2022-10-17T00:28:11;13.10;72.60
38265;DHT22;24062;47.480;8.768;2022-10-17T00:30:39;13.00;72.80
38265;DHT22;24062;47.480;8.768;2022-10-17T00:33:06;13.00;72.80
38265;DHT22;24062;47.480;8.768;2022-10-17T00:35:33;13.00;72.90
38265;DHT22;24062;47.480;8.768;2022-10-17T00:37:59;13.00;73.00
38265;DHT22;24062;47.480;8.768;2022-10-17T00:40:26;12.90;73.00
38265;DHT22;24062;47.480;8.768;2022-10-17T00:42:53;12.90;73.10
38265;DHT22;24062;47.480;8.768;2022-10-17T00:45:23;12.90;73.20
38265;DHT22;24062;47.480;8.768;2022-10-17T00:47:54;12.80;73.20
38265;DHT22;24062;47.480;8.768;2022-10-17T00:50:22;12.80;73.00
38265;DHT22;24062;47.480;8.768;2022-10-17T00:52:50;12.80;73.00
38265;DHT22;24062;47.480;8.768;2022-10-17T00:55:21;12.70;72.90
38265;DHT22;24062;47.480;8.768;2022-10-17T00:57:49;12.70;72.80
38265;DHT22;24062;47.480;8.768;2022-10-17T01:00:17;12.70;72.90
38265;DHT22;24062;47.480;8.768;2022-10-17T01:02:46;12.70;73.10
38265;DHT22;24062;47.480;8.768;2022-10-17T01:05:13;12.60;73.10
38265;DHT22;24062;47.480;8.768;2022-10-17T01:07:41;12.60;73.10
38265;DHT22;24062;47.480;8.768;2022-10-17T01:10:10;12.60;73.10
38265;DHT22;24062;47.480;8.768;2022-10-17T01:12:46;12.50;73.10
38265;DHT22;24062;47.480;8.768;2022-10-17T01:15:28;12.40;73.10
38265;DHT22;24062;47.480;8.768;2022-10-17T01:18:09;12.40;73.30
38265;DHT22;24062;47.480;8.768;2022-10-17T01:27:17;12.30;73.00
38265;DHT22;24062;47.480;8.768;2022-10-17T01:30:08;12.40;73.30
38265;DHT22;24062;47.480;8.768;2022-10-17T01:32:43;12.20;73.10
38265;DHT22;24062;47.480;8.768;2022-10-17T01:35:13;12.20;73.10
38265;DHT22;24062;47.480;8.768;2022-10-17T01:37:46;12.20;73.00
38265;DHT22;24062;47.480;8.768;2022-10-17T01:40:19;12.10;73.00
38265;DHT22;24062;47.480;8.768;2022-10-17T01:42:54;12.10;73.10
38265;DHT22;24062;47.480;8.768;2022-10-17T01:45:26;12.10;73.10
38265;DHT22;24062;47.480;8.768;2022-10-17T01:48:00;12.10;73.10
38265;DHT22;24062;47.480;8.768;2022-10-17T01:50:32;12.00;73.10
38265;DHT22;24062;47.480;8.768;2022-10-17T01:53:04;12.00;73.30
38265;DHT22;24062;47.480;8.768;2022-10-17T01:55:35;12.00;73.40
38265;DHT22;24062;47.480;8.768;2022-10-17T01:58:06;11.90;73.40
38265;DHT22;24062;47.480;8.768;2022-10-17T02:00:35;11.90;73.50
38265;DHT22;24062;47.480;8.768;2022-10-17T02:03:08;11.80;73.20
38265;DHT22;24062;47.480;8.768;2022-10-17T02:05:38;11.80;73.30
38265;DHT22;24062;47.480;8.768;2022-10-17T02:08:06;11.70;73.30
38265;DHT22;24062;47.480;8.768;2022-10-17T02:10:38;11.70;73.30
38265;DHT22;24062;47.480;8.768;2022-10-17T02:13:09;11.70;73.60
38265;DHT22;24062;47.480;8.768;2022-10-17T02:15:55;11.60;73.70
38265;DHT22;24062;47.480;8.768;2022-10-17T02:18:40;11.60;73.70
38265;DHT22;24062;47.480;8.768;2022-10-17T02:21:16;11.60;73.80
38265;DHT22;24062;47.480;8.768;2022-10-17T02:23:52;11.50;73.70
38265;DHT22;24062;47.480;8.768;2022-10-17T02:26:25;11.50;73.80
38265;DHT22;24062;47.480;8.768;2022-10-17T02:28:58;11.50;73.90
38265;DHT22;24062;47.480;8.768;2022-10-17T02:31:30;11.50;74.10
38265;DHT22;24062;47.480;8.768;2022-10-17T02:34:02;11.50;74.20
38265;DHT22;24062;47.480;8.768;2022-10-17T02:36:35;11.40;74.10
38265;DHT22;24062;47.480;8.768;2022-10-17T02:39:05;11.40;74.20
38265;DHT22;24062;47.480;8.768;2022-10-17T02:41:35;11.40;74.30
38265;DHT22;24062;47.480;8.768;2022-10-17T02:44:04;11.40;74.20
38265;DHT22;24062;47.480;8.768;2022-10-17T02:46:33;11.30;74.10
38265;DHT22;24062;47.480;8.768;2022-10-17T02:49:06;11.30;75.00
38265;DHT22;24062;47.480;8.768;2022-10-17T02:51:41;11.30;74.30
38265;DHT22;24062;47.480;8.768;2022-10-17T02:54:14;11.30;74.30
38265;DHT22;24062;47.480;8.768;2022-10-17T02:56:47;11.30;74.30
38265;DHT22;24062;47.480;8.768;2022-10-17T02:59:19;11.20;74.20
38265;DHT22;24062;47.480;8.768;2022-10-17T03:01:48;11.20;74.40
38265;DHT22;24062;47.480;8.768;2022-10-17T03:04:18;11.20;74.30
38265;DHT22;24062;47.480;8.768;2022-10-17T03:06:46;11.20;74.20
38265;DHT22;24062;47.480;8.768;2022-10-17T03:09:14;11.20;74.20
38265;DHT22;24062;47.480;8.768;2022-10-17T03:11:41;11.20;74.10
38265;DHT22;24062;47.480;8.768;2022-10-17T03:14:08;11.20;75.00
38265;DHT22;24062;47.480;8.768;2022-10-17T03:16:35;11.20;74.30
38265;DHT22;24062;47.480;8.768;2022-10-17T03:19:02;11.10;74.40
38265;DHT22;24062;47.480;8.768;2022-10-17T03:21:30;11.10;74.60
38265;DHT22;24062;47.480;8.768;2022-10-17T03:23:57;11.10;74.50
38265;DHT22;24062;47.480;8.768;2022-10-17T03:26:24;11.10;74.50
38265;DHT22;24062;47.480;8.768;2022-10-17T03:28:51;11.10;74.60
38265;DHT22;24062;47.480;8.768;2022-10-17T03:31:18;11.00;74.60
38265;DHT22;24062;47.480;8.768;2022-10-17T03:33:45;11.10;74.80
38265;DHT22;24062;47.480;8.768;2022-10-17T03:36:13;11.00;74.80
38265;DHT22;24062;47.480;8.768;2022-10-17T03:38:42;11.00;74.70
38265;DHT22;24062;47.480;8.768;2022-10-17T03:41:10;11.00;74.90
38265;DHT22;24062;47.480;8.768;2022-10-17T03:43:37;11.00;75.00
38265;DHT22;24062;47.480;8.768;2022-10-17T03:46:05;11.00;75.10
38265;DHT22;24062;47.480;8.768;2022-10-17T03:48:32;11.00;75.10
38265;DHT22;24062;47.480;8.768;2022-10-17T03:51:00;10.90;75.10
38265;DHT22;24062;47.480;8.768;2022-10-17T03:53:27;10.90;75.00
38265;DHT22;24062;47.480;8.768;2022-10-17T03:55:56;10.90;75.10
38265;DHT22;24062;47.480;8.768;2022-10-17T03:58:23;10.90;75.30
38265;DHT22;24062;47.480;8.768;2022-10-17T04:00:50;11.00;75.50
38265;DHT22;24062;47.480;8.768;2022-10-17T04:03:16;11.00;75.50
38265;DHT22;24062;47.480;8.768;2022-10-17T04:05:43;11.00;75.40
38265;DHT22;24062;47.480;8.768;2022-10-17T04:08:10;11.00;75.60
38265;DHT22;24062;47.480;8.768;2022-10-17T04:10:37;11.00;75.60
38265;DHT22;24062;47.480;8.768;2022-10-17T04:13:05;11.00;75.60
38265;DHT22;24062;47.480;8.768;2022-10-17T04:15:32;11.00;75.60
38265;DHT22;24062;47.480;8.768;2022-10-17T04:17:59;11.00;75.60
38265;DHT22;24062;47.480;8.768;2022-10-17T04:20:26;11.00;75.60
38265;DHT22;24062;47.480;8.768;2022-10-17T04:22:53;11.10;75.80
38265;DHT22;24062;47.480;8.768;2022-10-17T04:25:19;11.00;75.80
38265;DHT22;24062;47.480;8.768;2022-10-17T04:27:46;11.00;75.70
38265;DHT22;24062;47.480;8.768;2022-10-17T04:30:15;11.00;75.70
38265;DHT22;24062;47.480;8.768;2022-10-17T04:32:42;10.90;75.60
38265;DHT22;24062;47.480;8.768;2022-10-17T04:35:09;10.90;75.50
38265;DHT22;24062;47.480;8.768;2022-10-17T04:37:36;10.90;75.50
38265;DHT22;24062;47.480;8.768;2022-10-17T04:40:03;10.90;75.50
38265;DHT22;24062;47.480;8.768;2022-10-17T04:42:30;10.90;75.60
38265;DHT22;24062;47.480;8.768;2022-10-17T04:44:57;10.80;75.60
38265;DHT22;24062;47.480;8.768;2022-10-17T04:47:25;10.80;75.50
38265;DHT22;24062;47.480;8.768;2022-10-17T04:49:52;10.80;75.50
38265;DHT22;24062;47.480;8.768;2022-10-17T04:52:19;10.70;75.30
38265;DHT22;24062;47.480;8.768;2022-10-17T04:54:46;10.70;75.40
38265;DHT22;24062;47.480;8.768;2022-10-17T04:57:13;10.70;75.50
38265;DHT22;24062;47.480;8.768;2022-10-17T04:59:40;10.70;75.60
38265;DHT22;24062;47.480;8.768;2022-10-17T05:02:07;10.70;75.60
38265;DHT22;24062;47.480;8.768;2022-10-17T05:04:35;10.70;75.70
38265;DHT22;24062;47.480;8.768;2022-10-17T05:07:02;10.70;75.80
38265;DHT22;24062;47.480;8.768;2022-10-17T05:09:29;10.60;75.60
38265;DHT22;24062;47.480;8.768;2022-10-17T05:11:56;10.70;75.60
38265;DHT22;24062;47.480;8.768;2022-10-17T05:14:22;10.60;75.40
38265;DHT22;24062;47.480;8.768;2022-10-17T05:16:49;10.60;75.40
38265;DHT22;24062;47.480;8.768;2022-10-17T05:19:16;10.70;75.50
38265;DHT22;24062;47.480;8.768;2022-10-17T05:21:44;10.50;75.50
38265;DHT22;24062;47.480;8.768;2022-10-17T05:24:13;10.50;75.70
38265;DHT22;24062;47.480;8.768;2022-10-17T05:26:40;10.50;75.80
38265;DHT22;24062;47.480;8.768;2022-10-17T05:29:07;10.50;75.80
38265;DHT22;24062;47.480;8.768;2022-10-17T05:31:34;10.50;75.80
38265;DHT22;24062;47.480;8.768;2022-10-17T05:34:01;10.50;75.90
38265;DHT22;24062;47.480;8.768;2022-10-17T05:36:28;10.50;76.00
38265;DHT22;24062;47.480;8.768;2022-10-17T05:38:57;10.50;76.10
38265;DHT22;24062;47.480;8.768;2022-10-17T05:41:23;10.50;76.90
38265;DHT22;24062;47.480;8.768;2022-10-17T05:43:50;10.40;75.90
38265;DHT22;24062;47.480;8.768;2022-10-17T05:46:17;10.40;75.80
38265;DHT22;24062;47.480;8.768;2022-10-17T05:48:44;10.40;75.90
38265;DHT22;24062;47.480;8.768;2022-10-17T05:51:11;10.40;76.00
38265;DHT22;24062;47.480;8.768;2022-10-17T05:53:40;10.40;76.00
38265;DHT22;24062;47.480;8.768;2022-10-17T05:56:10;10.50;76.00
38265;DHT22;24062;47.480;8.768;2022-10-17T05:58:40;10.50;76.00
38265;DHT22;24062;47.480;8.768;2022-10-17T06:01:09;10.50;76.00
38265;DHT22;24062;47.480;8.768;2022-10-17T06:03:36;10.50;76.00
38265;DHT22;24062;47.480;8.768;2022-10-17T06:06:04;10.60;76.20
38265;DHT22;24062;47.480;8.768;2022-10-17T06:08:31;10.60;76.40
38265;DHT22;24062;47.480;8.768;2022-10-17T06:10:58;10.60;76.70
38265;DHT22;24062;47.480;8.768;2022-10-17T06:13:26;10.70;76.80
38265;DHT22;24062;47.480;8.768;2022-10-17T06:15:53;10.70;76.90
38265;DHT22;24062;47.480;8.768;2022-10-17T06:18:20;10.80;76.70
38265;DHT22;24062;47.480;8.768;2022-10-17T06:20:47;10.80;76.70
38265;DHT22;24062;47.480;8.768;2022-10-17T06:23:14;10.80;76.90
38265;DHT22;24062;47.480;8.768;2022-10-17T06:25:41;11.00;77.20
38265;DHT22;24062;47.480;8.768;2022-10-17T06:28:08;11.00;77.10
38265;DHT22;24062;47.480;8.768;2022-10-17T06:30:38;11.10;77.30
38265;DHT22;24062;47.480;8.768;2022-10-17T06:33:05;11.20;77.60
38265;DHT22;24062;47.480;8.768;2022-10-17T06:35:32;11.30;77.80
38265;DHT22;24062;47.480;8.768;2022-10-17T06:37:59;11.50;77.80
38265;DHT22;24062;47.480;8.768;2022-10-17T06:40:26;11.60;77.80
38265;DHT22;24062;47.480;8.768;2022-10-17T06:42:55;11.70;77.70
38265;DHT22;24062;47.480;8.768;2022-10-17T06:45:22;11.80;77.80
38265;DHT22;24062;47.480;8.768;2022-10-17T06:47:50;12.00;78.20
38265;DHT22;24062;47.480;8.768;2022-10-17T06:50:17;12.00;78.20
38265;DHT22;24062;47.480;8.768;2022-10-17T06:52:44;12.20;78.30
38265;DHT22;24062;47.480;8.768;2022-10-17T06:55:11;12.30;78.30
38265;DHT22;24062;47.480;8.768;2022-10-17T06:57:38;12.40;78.40
38265;DHT22;24062;47.480;8.768;2022-10-17T07:00:05;12.50;79.30
38265;DHT22;24062;47.480;8.768;2022-10-17T07:02:32;12.60;78.50
38265;DHT22;24062;47.480;8.768;2022-10-17T07:05:01;12.80;78.70
38265;DHT22;24062;47.480;8.768;2022-10-17T07:07:29;12.90;78.70
38265;DHT22;24062;47.480;8.768;2022-10-17T07:09:57;13.10;78.90
38265;DHT22;24062;47.480;8.768;2022-10-17T07:12:24;13.30;79.00
38265;DHT22;24062;47.480;8.768;2022-10-17T07:14:52;13.40;79.00
38265;DHT22;24062;47.480;8.768;2022-10-17T07:17:19;13.60;79.20
38265;DHT22;24062;47.480;8.768;2022-10-17T07:19:46;13.80;79.20
38265;DHT22;24062;47.480;8.768;2022-10-17T07:22:14;13.90;79.00
38265;DHT22;24062;47.480;8.768;2022-10-17T07:24:41;14.10;79.10
38265;DHT22;24062;47.480;8.768;2022-10-17T07:27:08;14.30;79.00
38265;DHT22;24062;47.480;8.768;2022-10-17T07:29:35;14.50;78.90
38265;DHT22;24062;47.480;8.768;2022-10-17T07:32:02;14.60;78.70
38265;DHT22;24062;47.480;8.768;2022-10-17T07:34:33;14.80;78.60
38265;DHT22;24062;47.480;8.768;2022-10-17T07:37:00;15.00;78.40
38265;DHT22;24062;47.480;8.768;2022-10-17T07:39:28;15.20;78.20
38265;DHT22;24062;47.480;8.768;2022-10-17T07:41:55;15.30;78.00
38265;DHT22;24062;47.480;8.768;2022-10-17T07:44:23;15.60;78.10
38265;DHT22;24062;47.480;8.768;2022-10-17T07:46:50;15.80;77.90
38265;DHT22;24062;47.480;8.768;2022-10-17T07:49:17;16.00;77.60
38265;DHT22;24062;47.480;8.768;2022-10-17T07:51:43;16.30;77.40
38265;DHT22;24062;47.480;8.768;2022-10-17T07:54:10;16.70;77.40
38265;DHT22;24062;47.480;8.768;2022-10-17T07:56:39;16.90;77.00
38265;DHT22;24062;47.480;8.768;2022-10-17T07:59:06;17.20;76.80
38265;DHT22;24062;47.480;8.768;2022-10-17T08:01:33;17.50;76.40
38265;DHT22;24062;47.480;8.768;2022-10-17T08:04:00;17.60;76.00
38265;DHT22;24062;47.480;8.768;2022-10-17T08:06:27;17.70;76.10
38265;DHT22;24062;47.480;8.768;2022-10-17T08:08:54;17.80;76.00
38265;DHT22;24062;47.480;8.768;2022-10-17T08:11:22;17.90;76.00
38265;DHT22;24062;47.480;8.768;2022-10-17T08:13:51;18.20;75.90
38265;DHT22;24062;47.480;8.768;2022-10-17T08:16:18;18.30;75.70
38265;DHT22;24062;47.480;8.768;2022-10-17T08:18:45;18.50;75.50
38265;DHT22;24062;47.480;8.768;2022-10-17T08:21:12;18.60;75.60
38265;DHT22;24062;47.480;8.768;2022-10-17T08:23:39;18.50;75.90
38265;DHT22;24062;47.480;8.768;2022-10-17T08:26:07;18.20;76.50
38265;DHT22;24062;47.480;8.768;2022-10-17T08:28:36;18.00;77.10
38265;DHT22;24062;47.480;8.768;2022-10-17T08:31:06;17.90;77.80
38265;DHT22;24062;47.480;8.768;2022-10-17T08:33:33;17.90;78.30
38265;DHT22;24062;47.480;8.768;2022-10-17T08:36:01;17.80;78.60
38265;DHT22;24062;47.480;8.768;2022-10-17T08:38:29;17.80;79.10
38265;DHT22;24062;47.480;8.768;2022-10-17T08:40:58;17.80;79.40
38265;DHT22;24062;47.480;8.768;2022-10-17T08:43:33;17.90;79.60
38265;DHT22;24062;47.480;8.768;2022-10-17T08:46:07;18.00;80.10
38265;DHT22;24062;47.480;8.768;2022-10-17T08:48:38;18.00;79.80
38265;DHT22;24062;47.480;8.768;2022-10-17T08:51:11;18.00;80.00
38265;DHT22;24062;47.480;8.768;2022-10-17T08:53:44;18.10;79.80
38265;DHT22;24062;47.480;8.768;2022-10-17T08:56:17;18.20;79.90
38265;DHT22;24062;47.480;8.768;2022-10-17T08:58:45;18.10;79.60
38265;DHT22;24062;47.480;8.768;2022-10-17T09:01:31;18.20;80.00
38265;DHT22;24062;47.480;8.768;2022-10-17T09:04:16;18.20;80.00
38265;DHT22;24062;47.480;8.768;2022-10-17T09:06:49;18.40;80.30
38265;DHT22;24062;47.480;8.768;2022-10-17T09:09:27;18.60;80.50
38265;DHT22;24062;47.480;8.768;2022-10-17T09:12:10;18.80;80.70
38265;DHT22;24062;47.480;8.768;2022-10-17T09:14:49;18.90;80.70
38265;DHT22;24062;47.480;8.768;2022-10-17T09:17:28;19.20;80.60
38265;DHT22;24062;47.480;8.768;2022-10-17T09:20:02;19.40;80.40
38265;DHT22;24062;47.480;8.768;2022-10-17T09:22:33;19.50;80.30
38265;DHT22;24062;47.480;8.768;2022-10-17T09:25:08;19.60;80.00
38265;DHT22;24062;47.480;8.768;2022-10-17T09:27:40;19.70;80.10
38265;DHT22;24062;47.480;8.768;2022-10-17T09:30:21;19.80;79.50
38265;DHT22;24062;47.480;8.768;2022-10-17T09:32:50;19.80;79.40
38265;DHT22;24062;47.480;8.768;2022-10-17T09:35:18;19.90;79.80
38265;DHT22;24062;47.480;8.768;2022-10-17T09:37:46;20.10;79.60
38265;DHT22;24062;47.480;8.768;2022-10-17T09:40:18;20.20;79.60
38265;DHT22;24062;47.480;8.768;2022-10-17T09:42:48;20.30;79.30
38265;DHT22;24062;47.480;8.768;2022-10-17T09:45:17;20.40;79.30
38265;DHT22;24062;47.480;8.768;2022-10-17T09:47:56;20.40;79.30
38265;DHT22;24062;47.480;8.768;2022-10-17T09:50:27;20.60;79.00
38265;DHT22;24062;47.480;8.768;2022-10-17T09:52:56;20.70;78.90
38265;DHT22;24062;47.480;8.768;2022-10-17T09:55:32;20.70;78.60
38265;DHT22;24062;47.480;8.768;2022-10-17T09:58:05;20.70;78.30
38265;DHT22;24062;47.480;8.768;2022-10-17T10:00:34;20.70;78.40
38265;DHT22;24062;47.480;8.768;2022-10-17T10:03:14;20.90;78.60
38265;DHT22;24062;47.480;8.768;2022-10-17T10:05:50;21.10;78.30
38265;DHT22;24062;47.480;8.768;2022-10-17T10:08:26;21.20;78.10
38265;DHT22;24062;47.480;8.768;2022-10-17T10:10:58;21.30;77.80
38265;DHT22;24062;47.480;8.768;2022-10-17T10:13:26;21.40;77.70
38265;DHT22;24062;47.480;8.768;2022-10-17T10:15:53;21.60;77.90
38265;DHT22;24062;47.480;8.768;2022-10-17T10:18:39;21.80;78.20
38265;DHT22;24062;47.480;8.768;2022-10-17T10:21:08;22.00;77.70
38265;DHT22;24062;47.480;8.768;2022-10-17T10:23:37;22.20;77.40
38265;DHT22;24062;47.480;8.768;2022-10-17T10:26:19;22.20;76.90
38265;DHT22;24062;47.480;8.768;2022-10-17T10:28:55;22.30;76.50
38265;DHT22;24062;47.480;8.768;2022-10-17T10:31:40;22.40;76.70
38265;DHT22;24062;47.480;8.768;2022-10-17T10:34:17;22.60;76.50
38265;DHT22;24062;47.480;8.768;2022-10-17T10:36:59;22.60;76.00
38265;DHT22;24062;47.480;8.768;2022-10-17T10:39:42;22.70;75.60
38265;DHT22;24062;47.480;8.768;2022-10-17T10:42:20;22.80;75.80
38265;DHT22;24062;47.480;8.768;2022-10-17T10:44:48;23.00;75.80
38265;DHT22;24062;47.480;8.768;2022-10-17T10:47:22;23.20;76.20
38265;DHT22;24062;47.480;8.768;2022-10-17T10:49:52;23.50;75.80
38265;DHT22;24062;47.480;8.768;2022-10-17T10:52:36;23.70;75.80
38265;DHT22;24062;47.480;8.768;2022-10-17T10:55:15;23.90;75.10
38265;DHT22;24062;47.480;8.768;2022-10-17T10:57:44;24.10;74.40
38265;DHT22;24062;47.480;8.768;2022-10-17T11:00:15;24.20;74.50
38265;DHT22;24062;47.480;8.768;2022-10-17T11:02:49;24.40;74.00
38265;DHT22;24062;47.480;8.768;2022-10-17T11:05:25;24.40;73.50
38265;DHT22;24062;47.480;8.768;2022-10-17T11:08:02;24.60;73.00
38265;DHT22;24062;47.480;8.768;2022-10-17T11:10:37;24.60;72.60
38265;DHT22;24062;47.480;8.768;2022-10-17T11:13:12;24.70;72.40
38265;DHT22;24062;47.480;8.768;2022-10-17T11:15:44;24.90;72.70
38265;DHT22;24062;47.480;8.768;2022-10-17T11:18:19;25.20;72.50
38265;DHT22;24062;47.480;8.768;2022-10-17T11:20:52;25.40;72.30
38265;DHT22;24062;47.480;8.768;2022-10-17T11:23:36;25.50;71.50
38265;DHT22;24062;47.480;8.768;2022-10-17T11:26:10;25.70;70.90
38265;DHT22;24062;47.480;8.768;2022-10-17T11:28:39;25.80;70.20
38265;DHT22;24062;47.480;8.768;2022-10-17T11:31:08;25.90;70.20
38265;DHT22;24062;47.480;8.768;2022-10-17T11:33:43;26.00;68.80
38265;DHT22;24062;47.480;8.768;2022-10-17T11:36:14;25.90;66.70
38265;DHT22;24062;47.480;8.768;2022-10-17T11:38:46;25.60;65.10
38265;DHT22;24062;47.480;8.768;2022-10-17T11:41:21;25.40;64.40
38265;DHT22;24062;47.480;8.768;2022-10-17T11:43:53;25.40;64.90
38265;DHT22;24062;47.480;8.768;2022-10-17T11:46:24;25.40;62.80
38265;DHT22;24062;47.480;8.768;2022-10-17T11:48:59;25.50;64.30
38265;DHT22;24062;47.480;8.768;2022-10-17T11:51:29;25.80;64.00
38265;DHT22;24062;47.480;8.768;2022-10-17T11:54:03;26.00;63.60
38265;DHT22;24062;47.480;8.768;2022-10-17T11:56:39;26.20;63.40
38265;DHT22;24062;47.480;8.768;2022-10-17T11:59:22;26.30;63.40
38265;DHT22;24062;47.480;8.768;2022-10-17T12:01:56;26.50;62.70
38265;DHT22;24062;47.480;8.768;2022-10-17T12:04:34;26.60;63.20
38265;DHT22;24062;47.480;8.768;2022-10-17T12:07:12;26.80;62.70
38265;DHT22;24062;47.480;8.768;2022-10-17T12:09:46;27.20;63.20
38265;DHT22;24062;47.480;8.768;2022-10-17T12:12:24;27.60;62.80
38265;DHT22;24062;47.480;8.768;2022-10-17T12:14:51;27.80;61.30
38265;DHT22;24062;47.480;8.768;2022-10-17T12:17:28;27.60;58.60
38265;DHT22;24062;47.480;8.768;2022-10-17T12:20:23;27.50;59.20
38265;DHT22;24062;47.480;8.768;2022-10-17T12:22:54;27.60;59.80
38265;DHT22;24062;47.480;8.768;2022-10-17T12:25:23;27.60;58.00
38265;DHT22;24062;47.480;8.768;2022-10-17T12:28:13;27.50;57.90
38265;DHT22;24062;47.480;8.768;2022-10-17T12:30:56;27.80;58.10
38265;DHT22;24062;47.480;8.768;2022-10-17T12:33:31;27.90;57.70
38265;DHT22;24062;47.480;8.768;2022-10-17T12:36:37;28.20;58.30
38265;DHT22;24062;47.480;8.768;2022-10-17T12:42:32;28.70;56.40
38265;DHT22;24062;47.480;8.768;2022-10-17T12:45:44;29.10;58.10
38265;DHT22;24062;47.480;8.768;2022-10-17T12:48:11;29.50;57.20
38265;DHT22;24062;47.480;8.768;2022-10-17T12:51:00;29.50;56.80
38265;DHT22;24062;47.480;8.768;2022-10-17T12:53:37;29.50;55.80
38265;DHT22;24062;47.480;8.768;2022-10-17T12:56:07;29.70;57.40
38265;DHT22;24062;47.480;8.768;2022-10-17T12:58:36;30.20;58.90
38265;DHT22;24062;47.480;8.768;2022-10-17T13:01:04;30.90;59.60
38265;DHT22;24062;47.480;8.768;2022-10-17T13:03:41;31.80;60.20
38265;DHT22;24062;47.480;8.768;2022-10-17T13:06:13;32.70;59.70
38265;DHT22;24062;47.480;8.768;2022-10-17T13:08:43;33.30;56.80
38265;DHT22;24062;47.480;8.768;2022-10-17T13:11:11;33.50;56.60
38265;DHT22;24062;47.480;8.768;2022-10-17T13:13:44;33.80;56.60
38265;DHT22;24062;47.480;8.768;2022-10-17T13:16:27;34.60;56.40
38265;DHT22;24062;47.480;8.768;2022-10-17T13:18:54;35.40;54.50
38265;DHT22;24062;47.480;8.768;2022-10-17T13:21:21;36.10;53.80
38265;DHT22;24062;47.480;8.768;2022-10-17T13:23:48;36.60;52.30
38265;DHT22;24062;47.480;8.768;2022-10-17T13:26:19;37.40;50.70
38265;DHT22;24062;47.480;8.768;2022-10-17T13:29:00;38.30;50.30
38265;DHT22;24062;47.480;8.768;2022-10-17T13:31:30;39.60;48.70
38265;DHT22;24062;47.480;8.768;2022-10-17T13:33:58;40.60;47.10
38265;DHT22;24062;47.480;8.768;2022-10-17T13:36:25;41.10;43.70
38265;DHT22;24062;47.480;8.768;2022-10-17T13:38:53;41.20;42.80
38265;DHT22;24062;47.480;8.768;2022-10-17T13:41:24;41.50;41.90
38265;DHT22;24062;47.480;8.768;2022-10-17T13:43:54;42.10;41.00
38265;DHT22;24062;47.480;8.768;2022-10-17T13:46:26;42.30;39.50
38265;DHT22;24062;47.480;8.768;2022-10-17T13:48:55;42.70;39.10
38265;DHT22;24062;47.480;8.768;2022-10-17T13:51:23;42.60;36.90
38265;DHT22;24062;47.480;8.768;2022-10-17T13:53:50;42.60;36.90
38265;DHT22;24062;47.480;8.768;2022-10-17T13:56:19;42.90;36.40
38265;DHT22;24062;47.480;8.768;2022-10-17T13:58:48;43.40;36.20
38265;DHT22;24062;47.480;8.768;2022-10-17T14:01:17;43.80;35.40
38265;DHT22;24062;47.480;8.768;2022-10-17T14:03:46;44.20;35.10
38265;DHT22;24062;47.480;8.768;2022-10-17T14:06:16;44.60;34.20
38265;DHT22;24062;47.480;8.768;2022-10-17T14:08:53;44.50;33.90
38265;DHT22;24062;47.480;8.768;2022-10-17T14:11:32;44.50;33.00
38265;DHT22;24062;47.480;8.768;2022-10-17T14:14:02;44.80;33.70
38265;DHT22;24062;47.480;8.768;2022-10-17T14:16:36;45.30;33.90
38265;DHT22;24062;47.480;8.768;2022-10-17T14:19:04;45.80;33.40
38265;DHT22;24062;47.480;8.768;2022-10-17T14:21:32;46.00;33.00
38265;DHT22;24062;47.480;8.768;2022-10-17T14:24:14;46.10;32.70
38265;DHT22;24062;47.480;8.768;2022-10-17T14:26:49;45.80;32.30
38265;DHT22;24062;47.480;8.768;2022-10-17T14:29:21;46.20;32.20
38265;DHT22;24062;47.480;8.768;2022-10-17T14:32:00;46.50;32.00
38265;DHT22;24062;47.480;8.768;2022-10-17T14:34:31;46.80;31.50
38265;DHT22;24062;47.480;8.768;2022-10-17T14:36:59;46.80;31.00
38265;DHT22;24062;47.480;8.768;2022-10-17T14:39:27;46.70;30.80
38265;DHT22;24062;47.480;8.768;2022-10-17T14:41:54;46.40;30.30
38265;DHT22;24062;47.480;8.768;2022-10-17T14:44:25;46.20;30.30
38265;DHT22;24062;47.480;8.768;2022-10-17T14:46:57;46.00;30.10
38265;DHT22;24062;47.480;8.768;2022-10-17T14:49:31;45.70;30.00
38265;DHT22;24062;47.480;8.768;2022-10-17T14:52:26;45.30;30.00
38265;DHT22;24062;47.480;8.768;2022-10-17T14:54:54;45.00;30.00
38265;DHT22;24062;47.480;8.768;2022-10-17T14:57:24;44.70;30.10
38265;DHT22;24062;47.480;8.768;2022-10-17T14:59:51;44.40;30.00
38265;DHT22;24062;47.480;8.768;2022-10-17T15:02:19;44.20;30.10
38265;DHT22;24062;47.480;8.768;2022-10-17T15:04:46;43.70;29.90
38265;DHT22;24062;47.480;8.768;2022-10-17T15:07:14;43.00;30.00
38265;DHT22;24062;47.480;8.768;2022-10-17T15:09:41;42.90;30.50
38265;DHT22;24062;47.480;8.768;2022-10-17T15:12:13;42.70;30.60
38265;DHT22;24062;47.480;8.768;2022-10-17T15:14:40;42.80;30.90
38265;DHT22;24062;47.480;8.768;2022-10-17T15:17:11;42.70;30.50
38265;DHT22;24062;47.480;8.768;2022-10-17T15:19:40;42.60;30.70
38265;DHT22;24062;47.480;8.768;2022-10-17T15:22:07;42.50;30.90
38265;DHT22;24062;47.480;8.768;2022-10-17T15:24:34;42.30;30.80
38265;DHT22;24062;47.480;8.768;2022-10-17T15:27:01;41.30;30.10
38265;DHT22;24062;47.480;8.768;2022-10-17T15:29:28;39.20;30.00
38265;DHT22;24062;47.480;8.768;2022-10-17T15:31:55;37.10;30.60
38265;DHT22;24062;47.480;8.768;2022-10-17T15:34:22;35.20;30.90
38265;DHT22;24062;47.480;8.768;2022-10-17T15:36:51;33.70;31.90
38265;DHT22;24062;47.480;8.768;2022-10-17T15:39:18;32.50;33.00
38265;DHT22;24062;47.480;8.768;2022-10-17T15:41:46;31.60;33.40
38265;DHT22;24062;47.480;8.768;2022-10-17T15:44:13;30.80;34.30
38265;DHT22;24062;47.480;8.768;2022-10-17T15:46:41;30.30;35.30
38265;DHT22;24062;47.480;8.768;2022-10-17T15:49:11;29.90;36.10
38265;DHT22;24062;47.480;8.768;2022-10-17T15:51:39;29.40;36.60
38265;DHT22;24062;47.480;8.768;2022-10-17T15:54:07;28.90;36.80
38265;DHT22;24062;47.480;8.768;2022-10-17T15:56:37;28.50;37.50
38265;DHT22;24062;47.480;8.768;2022-10-17T15:59:06;28.10;38.30
38265;DHT22;24062;47.480;8.768;2022-10-17T16:01:38;27.70;38.50